Time;durP1;ratioP1;P1;durP2;ratioP2;P2;SDS_P1;SDS_P2;PMS_P1;PMS_P2;Temp;Humidity;BMP_temperature;BMP_pressure;BME280_temperature;BME280_humidity;BME280_pressure;Samples;Min_cycle;Max_cycle;Signal;HPM_P1;HPM_P2
2022/09/01 00:01:41;;;;;;;8.87;6.97;;;;;;;14.78;100.00;98812.03;5018852;28;20245;-56
2022/09/01 00:04:11;;;;;;;8.40;7.33;;;;;;;14.80;100.00;98812.69;5019328;28;20241;-56
2022/09/01 00:06:39;;;;;;;8.67;7.80;;;;;;;14.87;99.53;98808.34;5019323;28;20242;-56
2022/09/01 00:09:10;;;;;;;10.17;7.40;;;;;;;14.89;99.49;98810.81;5020309;28;20285;-53
2022/09/01 00:11:39;;;;;;;10.17;7.00;;;;;;;14.85;99.90;98814.78;5017086;28;20232;-54
2022/09/01 00:14:08;;;;;;;11.73;7.37;;;;;;;14.88;99.70;98809.19;5022338;28;20574;-57
2022/09/01 00:16:35;;;;;;;10.60;7.70;;;;;;;14.93;98.77;98809.47;5017334;28;20221;-57
2022/09/01 00:19:03;;;;;;;11.20;7.83;;;;;;;15.00;99.22;98820.09;5019601;28;20234;-54
2022/09/01 00:21:32;;;;;;;12.57;7.43;;;;;;;15.03;99.05;98809.22;5019262;28;20233;-53
2022/09/01 00:24:01;;;;;;;9.33;6.87;;;;;;;15.01;98.87;98812.03;5020044;28;20587;-57
2022/09/01 00:26:30;;;;;;;11.70;7.20;;;;;;;15.00;98.18;98820.09;5007735;28;20243;-56
2022/09/01 00:28:57;;;;;;;12.33;7.50;;;;;;;14.91;99.09;98808.81;5020315;28;20245;-53
2022/09/01 00:31:24;;;;;;;9.47;7.40;;;;;;;14.81;99.06;98810.88;5000995;28;20236;-57
2022/09/01 00:33:52;;;;;;;11.10;7.70;;;;;;;14.74;100.00;98814.19;4999882;28;20234;-56
2022/09/01 00:36:19;;;;;;;9.57;7.40;;;;;;;14.69;100.00;98815.66;5021737;28;20244;-56
2022/09/01 00:38:48;;;;;;;10.20;7.47;;;;;;;14.55;100.00;98814.56;5001010;28;20240;-56
2022/09/01 00:41:17;;;;;;;9.90;7.60;;;;;;;14.52;100.00;98813.13;5000545;28;20275;-56
2022/09/01 00:43:48;;;;;;;12.60;7.57;;;;;;;14.47;100.00;98808.38;5017179;28;20232;-54
2022/09/01 00:46:17;;;;;;;10.97;7.07;;;;;;;14.49;100.00;98817.88;5018855;28;20320;-56
2022/09/01 00:48:44;;;;;;;9.02;8.10;;;;;;;14.38;100.00;98819.09;5014607;28;20434;-56
2022/09/01 00:51:13;;;;;;;9.47;7.23;;;;;;;14.26;100.00;98818.66;5017078;28;20593;-53
2022/09/01 00:53:42;;;;;;;12.83;8.07;;;;;;;14.24;100.00;98816.19;4998302;28;20246;-56
2022/09/01 00:56:09;;;;;;;9.93;7.63;;;;;;;14.21;100.00;98811.28;5015069;28;20276;-54
2022/09/01 00:58:37;;;;;;;9.47;7.40;;;;;;;14.12;100.00;98813.13;5001252;28;20239;-54
2022/09/01 01:01:07;;;;;;;11.03;7.77;;;;;;;14.10;100.00;98814.28;5019878;28;20238;-54
2022/09/01 01:03:34;;;;;;;8.63;7.73;;;;;;;14.03;100.00;98808.88;4999273;28;20242;-55
2022/09/01 01:06:07;;;;;;;9.23;8.23;;;;;;;14.01;100.00;98810.88;5018339;28;20261;-52
2022/09/01 01:08:38;;;;;;;8.77;7.87;;;;;;;13.98;100.00;98812.00;4997863;28;20235;-54
2022/09/01 01:11:08;;;;;;;10.83;8.27;;;;;;;13.99;100.00;98812.84;5001722;28;20229;-54
2022/09/01 01:13:49;;;;;;;11.27;8.03;;;;;;;13.96;100.00;98808.72;5013234;28;20245;-54
2022/09/01 01:16:18;;;;;;;9.27;8.27;;;;;;;13.88;100.00;98808.75;5016232;28;20234;-53
2022/09/01 01:18:46;;;;;;;12.60;8.13;;;;;;;13.83;100.00;98808.44;5015263;28;20237;-51
2022/09/01 01:24:10;;;;;;;13.03;8.13;;;;;;;13.76;100.00;98808.28;5016455;28;20280;-54
2022/09/01 01:26:39;;;;;;;9.70;8.70;;;;;;;13.71;100.00;98816.66;4998866;28;20226;-54
2022/09/01 01:29:08;;;;;;;15.27;8.73;;;;;;;13.65;100.00;98817.34;5002515;28;20240;-54
2022/09/01 01:31:36;;;;;;;9.83;8.83;;;;;;;13.61;100.00;98816.03;4998683;28;21935;-54
2022/09/01 01:34:08;;;;;;;12.33;8.40;;;;;;;13.58;100.00;98816.34;5001271;28;20375;-54
2022/09/01 01:36:40;;;;;;;13.60;9.20;;;;;;;13.65;100.00;98806.84;5015290;28;20314;-51
2022/09/01 01:39:13;;;;;;;13.77;8.70;;;;;;;13.56;100.00;98810.47;5002050;28;20295;-53
2022/09/01 01:41:47;;;;;;;12.87;9.63;;;;;;;13.50;100.00;98803.25;5013529;28;20251;-54
2022/09/01 01:44:17;;;;;;;12.83;9.10;;;;;;;13.42;100.00;98799.66;5000843;28;20229;-55
2022/09/01 01:46:47;;;;;;;11.90;9.17;;;;;;;13.41;100.00;98805.88;4997189;28;20234;-54
2022/09/01 01:49:18;;;;;;;15.40;9.50;;;;;;;13.42;100.00;98807.50;5005986;28;20247;-55
2022/09/01 01:52:04;;;;;;;12.53;8.93;;;;;;;13.40;100.00;98809.44;5015909;28;20937;-51
2022/09/01 01:54:32;;;;;;;11.43;9.83;;;;;;;13.36;100.00;98802.91;4996913;28;20227;-54
2022/09/01 01:57:03;;;;;;;13.33;9.17;;;;;;;13.37;100.00;98808.94;5001369;28;20260;-55
2022/09/01 01:59:32;;;;;;;11.33;9.60;;;;;;;13.39;100.00;98809.59;5002840;28;20834;-54
2022/09/01 02:02:02;;;;;;;14.77;9.40;;;;;;;13.29;100.00;98800.09;5000147;28;20266;-54
2022/09/01 02:04:32;;;;;;;18.93;9.50;;;;;;;13.23;100.00;98803.41;5015657;28;20324;-52
2022/09/01 02:07:05;;;;;;;14.60;8.80;;;;;;;13.24;100.00;98806.81;5019363;28;20220;-55
2022/09/01 02:09:33;;;;;;;12.87;9.30;;;;;;;13.21;100.00;98799.28;5014213;28;20340;-55
2022/09/01 02:12:01;;;;;;;11.37;8.83;;;;;;;13.19;100.00;98802.09;5001544;28;20404;-55
2022/09/01 02:14:29;;;;;;;15.10;10.00;;;;;;;13.19;100.00;98796.00;5014065;28;20232;-51
2022/09/01 02:16:56;;;;;;;10.60;9.17;;;;;;;13.17;100.00;98795.34;5019523;28;20234;-51
2022/09/01 02:19:23;;;;;;;9.97;8.70;;;;;;;13.09;100.00;98790.94;4995720;28;20242;-53
2022/09/01 02:21:53;;;;;;;10.57;9.47;;;;;;;13.09;100.00;98791.75;5001762;28;20243;-53
2022/09/01 02:24:20;;;;;;;14.33;9.53;;;;;;;13.09;100.00;98796.19;5019084;28;20950;-55
2022/09/01 02:26:47;;;;;;;15.07;9.33;;;;;;;13.16;100.00;98791.09;5013318;28;20229;-54
2022/09/01 02:29:20;;;;;;;21.63;10.00;;;;;;;13.07;100.00;98795.53;5015391;28;20631;-52
2022/09/01 02:31:50;;;;;;;11.90;9.13;;;;;;;12.99;100.00;98791.91;5016086;28;20269;-54
2022/09/01 02:34:18;;;;;;;12.07;9.20;;;;;;;12.98;100.00;98792.06;5001814;28;20292;-54
2022/09/01 02:36:48;;;;;;;14.80;10.77;;;;;;;13.01;100.00;98791.75;4998759;28;20694;-54
2022/09/01 02:39:22;;;;;;;12.27;10.60;;;;;;;13.02;100.00;98793.38;5000378;28;20261;-51
2022/09/01 02:41:50;;;;;;;12.60;10.57;;;;;;;13.07;100.00;98791.09;5005082;28;20622;-53
2022/09/01 02:44:23;;;;;;;12.83;10.33;;;;;;;13.08;100.00;98787.50;4998547;28;22053;-52
2022/09/01 02:46:50;;;;;;;13.80;10.23;;;;;;;13.04;100.00;98788.00;5018298;28;20582;-51
2022/09/01 02:49:24;;;;;;;15.27;11.03;;;;;;;13.01;100.00;98789.13;4999898;28;20307;-54
2022/09/01 02:51:59;;;;;;;12.80;9.93;;;;;;;12.95;100.00;98785.34;4995787;28;20232;-54
2022/09/01 02:54:28;;;;;;;13.73;10.93;;;;;;;13.03;100.00;98791.59;5010605;28;20555;-52
2022/09/01 02:56:55;;;;;;;14.70;10.53;;;;;;;13.04;100.00;98791.41;5015805;28;20239;-54
2022/09/01 02:59:27;;;;;;;14.23;10.93;;;;;;;12.94;100.00;98788.13;4998397;28;20323;-54
2022/09/01 03:01:57;;;;;;;13.97;10.20;;;;;;;12.96;100.00;98797.47;5004628;28;20233;-53
2022/09/01 03:04:25;;;;;;;12.70;9.70;;;;;;;12.93;100.00;98792.56;4999613;28;20223;-52
2022/09/01 03:06:53;;;;;;;14.10;10.67;;;;;;;12.92;100.00;98784.84;5001783;28;20228;-53
2022/09/01 03:09:20;;;;;;;14.50;9.53;;;;;;;12.91;100.00;98783.22;5002282;28;20611;-54
2022/09/01 03:11:50;;;;;;;10.83;9.43;;;;;;;12.83;100.00;98779.59;5001551;28;20692;-53
2022/09/01 03:14:18;;;;;;;15.33;10.80;;;;;;;12.86;100.00;98786.31;5020154;28;20246;-52
2022/09/01 03:16:46;;;;;;;12.63;9.57;;;;;;;12.91;100.00;98783.22;5018490;28;20231;-55
2022/09/01 03:19:13;;;;;;;10.53;9.47;;;;;;;12.83;100.00;98786.66;5000558;28;20726;-55
2022/09/01 03:21:43;;;;;;;11.43;9.77;;;;;;;12.79;100.00;98790.56;5000358;28;20235;-54
2022/09/01 03:24:15;;;;;;;14.90;10.20;;;;;;;12.88;100.00;98783.53;5019828;28;20225;-54
2022/09/01 03:26:44;;;;;;;13.17;10.33;;;;;;;12.82;100.00;98788.44;5003896;28;20239;-60
2022/09/01 03:29:10;;;;;;;14.77;10.20;;;;;;;12.83;100.00;98791.88;4999371;28;20592;-55
2022/09/01 03:31:37;;;;;;;13.30;10.30;;;;;;;12.88;100.00;98791.38;4997455;28;20243;-52
2022/09/01 03:34:09;;;;;;;15.00;10.23;;;;;;;12.93;100.00;98786.50;5002297;28;20232;-57
2022/09/01 03:36:48;;;;;;;15.00;10.40;;;;;;;12.88;100.00;98791.38;5000110;28;20232;-52
2022/09/01 03:39:18;;;;;;;13.47;10.60;;;;;;;12.92;100.00;98787.47;5003110;28;20313;-55
2022/09/01 03:41:45;;;;;;;16.60;11.03;;;;;;;12.89;100.00;98790.41;5002497;28;20606;-55
2022/09/01 03:44:15;;;;;;;17.90;10.57;;;;;;;12.96;100.00;98780.94;5006088;28;20231;-55
2022/09/01 03:46:43;;;;;;;14.20;10.80;;;;;;;12.95;100.00;98779.28;5000336;28;20246;-53
2022/09/01 03:49:14;;;;;;;13.07;9.90;;;;;;;12.93;100.00;98776.00;4960305;28;1326205;-55
2022/09/01 03:51:43;;;;;;;14.37;10.90;;;;;;;12.91;100.00;98780.59;5002395;28;20524;-53
2022/09/01 03:54:10;;;;;;;12.60;10.03;;;;;;;12.90;100.00;98782.41;5000263;28;20236;-54
2022/09/01 03:56:40;;;;;;;12.40;9.87;;;;;;;12.84;100.00;98772.56;4996207;28;20222;-54
2022/09/01 03:59:15;;;;;;;13.50;10.27;;;;;;;12.83;100.00;98776.16;5003965;28;20229;-56
2022/09/01 04:01:44;;;;;;;14.63;10.60;;;;;;;12.84;100.00;98783.84;5001572;28;20267;-56
2022/09/01 04:04:13;;;;;;;14.83;10.43;;;;;;;12.85;100.00;98780.25;5005455;28;20237;-56
2022/09/01 04:06:42;;;;;;;13.47;10.67;;;;;;;12.81;100.00;98778.94;5000830;28;23386;-52
2022/09/01 04:09:09;;;;;;;14.50;10.20;;;;;;;12.83;100.00;98774.34;5004888;28;20811;-53
2022/09/01 04:11:38;;;;;;;12.17;10.87;;;;;;;12.80;100.00;98772.06;5022141;28;20231;-54
2022/09/01 04:14:05;;;;;;;16.53;11.67;;;;;;;12.83;100.00;98770.94;5017928;28;20224;-55
2022/09/01 04:19:25;;;;;;;19.57;12.87;;;;;;;13.04;100.00;98775.69;5000843;28;20236;-54
2022/09/01 04:21:54;;;;;;;19.83;12.73;;;;;;;13.03;100.00;98787.16;4998997;28;20728;-56
2022/09/01 04:24:23;;;;;;;18.20;12.77;;;;;;;12.98;100.00;98786.81;4999555;28;20235;-54
2022/09/01 04:26:52;;;;;;;17.87;13.17;;;;;;;12.95;100.00;98781.91;5019812;28;20240;-53
2022/09/01 04:29:25;;;;;;;17.03;11.77;;;;;;;12.90;100.00;98784.19;5001020;28;20816;-54
2022/09/01 04:31:53;;;;;;;15.10;11.10;;;;;;;12.82;100.00;98779.78;4998459;28;20296;-54
2022/09/01 04:34:22;;;;;;;14.37;11.33;;;;;;;12.75;100.00;98779.59;5001157;28;20603;-55
2022/09/01 04:36:52;;;;;;;17.87;12.60;;;;;;;12.74;100.00;98777.13;5018162;28;20583;-56
2022/09/01 04:39:19;;;;;;;15.13;11.63;;;;;;;12.72;100.00;98777.28;5003053;28;20350;-55
2022/09/01 04:41:48;;;;;;;13.93;11.80;;;;;;;12.73;100.00;98775.50;5019074;28;20235;-55
2022/09/01 04:44:15;;;;;;;14.33;12.07;;;;;;;12.74;100.00;98772.69;5020177;28;20256;-55
2022/09/01 04:46:45;;;;;;;18.23;12.37;;;;;;;12.80;100.00;98771.25;5018340;28;20231;-53
2022/09/01 04:49:18;;;;;;;22.00;14.87;;;;;;;12.91;100.00;98772.72;4997870;28;20234;-56
2022/09/01 04:51:48;;;;;;;18.03;13.60;;;;;;;12.98;100.00;98768.47;4998958;28;20239;-56
2022/09/01 04:54:16;;;;;;;14.30;12.20;;;;;;;13.11;100.00;98776.69;5020570;28;20684;-54
2022/09/01 04:56:49;;;;;;;16.57;12.50;;;;;;;13.14;100.00;98768.50;4998339;28;20327;-54
2022/09/01 04:59:19;;;;;;;15.23;11.47;;;;;;;13.18;100.00;98774.25;5004048;28;20226;-55
2022/09/01 05:01:49;;;;;;;14.67;12.23;;;;;;;13.21;100.00;98778.31;5001027;28;20712;-54
2022/09/01 05:04:20;;;;;;;12.67;11.00;;;;;;;13.22;100.00;98774.72;5001690;28;20243;-55
2022/09/01 05:06:50;;;;;;;16.03;10.47;;;;;;;13.20;100.00;98772.28;4999840;28;20232;-55
2022/09/01 05:09:19;;;;;;;13.80;10.70;;;;;;;13.24;100.00;98775.38;5001662;28;20720;-53
2022/09/01 05:11:52;;;;;;;13.23;10.93;;;;;;;13.27;100.00;98773.22;5001029;28;20238;-53
2022/09/01 05:14:24;;;;;;;14.07;10.80;;;;;;;13.29;100.00;98778.31;4999386;28;20229;-54
2022/09/01 05:16:57;;;;;;;13.97;10.23;;;;;;;13.29;100.00;98783.56;5002934;28;20236;-53
2022/09/01 05:19:25;;;;;;;13.30;11.07;;;;;;;13.32;100.00;98783.22;5017476;28;20239;-54
2022/09/01 05:21:57;;;;;;;13.83;11.47;;;;;;;13.33;100.00;98784.03;4998400;28;20741;-54
2022/09/01 05:24:33;;;;;;;12.43;10.80;;;;;;;13.34;100.00;98789.13;5016576;28;20804;-55
2022/09/01 05:27:04;;;;;;;13.00;11.00;;;;;;;13.31;100.00;98784.22;5000230;28;20245;-56
2022/09/01 05:29:37;;;;;;;14.40;10.30;;;;;;;13.35;100.00;98787.31;4998925;28;20250;-56
2022/09/01 05:32:08;;;;;;;14.80;10.50;;;;;;;13.33;100.00;98784.03;5000800;28;20295;-56
2022/09/01 05:34:41;;;;;;;15.17;11.67;;;;;;;13.37;100.00;98787.97;4998681;28;20228;-56
2022/09/01 05:37:11;;;;;;;13.33;10.33;;;;;;;13.36;100.00;98783.72;5005482;28;20224;-56
2022/09/01 05:39:39;;;;;;;13.73;10.90;;;;;;;13.38;100.00;98789.59;5016342;28;20312;-54
2022/09/01 05:42:07;;;;;;;16.70;10.53;;;;;;;13.40;100.00;98788.47;4999014;28;20310;-54
2022/09/01 05:44:35;;;;;;;15.13;11.43;;;;;;;13.44;100.00;98788.97;4995699;28;20229;-55
2022/09/01 05:47:04;;;;;;;19.37;11.27;;;;;;;13.47;100.00;98790.47;4999731;28;20294;-53
2022/09/01 05:49:31;;;;;;;15.97;12.20;;;;;;;13.48;100.00;98786.88;5000384;28;20731;-56
2022/09/01 05:52:02;;;;;;;14.50;11.67;;;;;;;13.49;100.00;98789.31;5000037;28;20239;-54
2022/09/01 05:54:33;;;;;;;15.37;11.10;;;;;;;13.54;100.00;98789.63;4999340;28;20237;-56
2022/09/01 05:57:01;;;;;;;16.93;11.47;;;;;;;13.55;100.00;98791.25;5002383;28;20314;-56
2022/09/01 05:59:30;;;;;;;15.17;10.87;;;;;;;13.57;100.00;98789.28;5014615;28;20241;-54
2022/09/01 06:02:11;;;;;;;12.80;10.07;;;;;;;13.62;100.00;98785.34;5000310;28;20248;-56
2022/09/01 06:04:39;;;;;;;13.20;10.70;;;;;;;13.65;100.00;98785.84;5014324;28;20227;-53
2022/09/01 06:07:08;;;;;;;14.83;10.90;;;;;;;13.76;100.00;98786.50;5000175;28;20793;-53
2022/09/01 06:09:40;;;;;;;16.13;10.43;;;;;;;13.84;100.00;98787.28;4997348;28;20307;-56
2022/09/01 06:12:07;;;;;;;13.17;10.30;;;;;;;13.97;100.00;98780.69;4998596;28;20241;-55
2022/09/01 06:14:34;;;;;;;15.50;10.07;;;;;;;14.10;100.00;98790.66;4993517;28;20225;-52
2022/09/01 06:17:02;;;;;;;11.60;8.73;;;;;;;14.30;100.00;98793.69;5003201;28;20239;-55
2022/09/01 06:19:28;;;;;;;11.07;9.10;;;;;;;14.58;100.00;98796.69;4997980;28;20740;-54
2022/09/01 06:21:56;;;;;;;9.87;7.20;;;;;;;14.74;99.68;98801.03;5000308;28;20301;-53
2022/09/01 06:24:24;;;;;;;7.97;6.57;;;;;;;14.89;97.54;98805.56;4997911;28;20242;-55
2022/09/01 06:26:53;;;;;;;9.17;7.13;;;;;;;14.95;97.83;98806.66;4998717;28;20338;-55
2022/09/01 06:29:21;;;;;;;10.23;7.33;;;;;;;15.09;94.25;98816.41;5000923;28;20231;-53
2022/09/01 06:31:51;;;;;;;8.03;6.90;;;;;;;15.16;94.33;98812.09;4999530;28;20245;-53
2022/09/01 06:34:19;;;;;;;7.70;6.00;;;;;;;15.22;93.59;98813.22;4999970;28;20243;-55
2022/09/01 06:36:50;;;;;;;8.50;6.13;;;;;;;15.38;89.59;98821.94;5016594;28;20230;-55
2022/09/01 06:39:19;;;;;;;7.57;5.80;;;;;;;15.42;89.86;98818.81;5015522;28;20223;-53
2022/09/01 06:41:51;;;;;;;7.03;6.30;;;;;;;15.47;89.06;98828.78;4997931;28;20229;-55
2022/09/01 06:44:22;;;;;;;9.37;6.30;;;;;;;15.57;87.98;98825.91;5000784;28;20286;-55
2022/09/01 06:46:58;;;;;;;7.25;6.00;;;;;;;15.69;84.71;98824.50;4996374;28;20548;-56
2022/09/01 06:49:31;;;;;;;6.40;5.33;;;;;;;15.72;86.58;98821.50;4996944;28;20229;-56
2022/09/01 06:51:59;;;;;;;6.93;5.57;;;;;;;15.83;85.07;98811.53;5001302;28;20244;-56
2022/09/01 06:54:28;;;;;;;8.40;5.60;;;;;;;15.92;83.72;98821.81;4997924;28;20235;-53
2022/09/01 06:56:55;;;;;;;7.60;5.47;;;;;;;16.07;82.61;98816.53;5002336;28;20304;-56
2022/09/01 06:59:30;;;;;;;6.17;5.30;;;;;;;16.16;82.13;98825.19;5000138;28;20233;-52
2022/09/01 07:02:00;;;;;;;7.43;5.37;;;;;;;16.25;82.52;98819.81;4999805;28;20612;-53
2022/09/01 07:04:38;;;;;;;6.17;5.10;;;;;;;16.36;80.43;98830.69;4999063;28;20233;-55
2022/09/01 07:07:05;;;;;;;5.60;4.70;;;;;;;16.44;81.00;98827.13;5000571;28;20232;-55
2022/09/01 07:09:51;;;;;;;4.90;4.50;;;;;;;16.56;80.83;98832.75;5015556;28;20601;-56
2022/09/01 07:12:23;;;;;;;6.27;5.17;;;;;;;16.65;82.13;98849.28;4997248;28;20851;-54
2022/09/01 07:14:52;;;;;;;14.00;8.40;;;;;;;16.68;84.57;98847.09;5015185;28;20234;-55
2022/09/01 07:17:20;;;;;;;5.97;5.37;;;;;;;16.70;81.50;98846.09;4999060;28;20574;-56
2022/09/01 07:19:47;;;;;;;6.30;5.00;;;;;;;16.76;81.83;98850.63;4999385;28;20232;-53
2022/09/01 07:22:14;;;;;;;9.37;8.37;;;;;;;16.79;83.26;98851.06;4996694;28;20251;-55
2022/09/01 07:24:45;;;;;;;11.83;8.93;;;;;;;16.85;83.90;98862.72;4993748;28;20905;-55
2022/09/01 07:27:49;;;;;;;14.83;11.57;;;;;;;16.73;87.80;98862.34;4984599;28;20703;-55
2022/09/01 07:30:20;;;;;;;14.33;12.33;;;;;;;16.50;90.53;98865.13;5000967;28;20261;-55
2022/09/01 07:32:49;;;;;;;15.37;12.27;;;;;;;16.52;91.56;98863.13;5013924;28;20768;-54
2022/09/01 07:35:21;;;;;;;20.37;12.47;;;;;;;16.49;92.07;98869.56;5000776;28;20327;-56
2022/09/01 07:37:50;;;;;;;16.30;13.37;;;;;;;16.41;92.54;98868.84;4996261;28;20687;-54
2022/09/01 07:40:21;;;;;;;15.30;13.03;;;;;;;16.39;93.73;98876.94;4998341;28;20641;-57
2022/09/01 07:43:10;;;;;;;21.13;13.67;;;;;;;16.23;93.62;98870.88;4990481;28;20319;-54
2022/09/01 07:45:58;;;;;;;19.87;13.73;;;;;;;16.33;93.49;98873.22;5018032;28;20742;-55
2022/09/01 07:48:27;;;;;;;16.40;13.10;;;;;;;16.47;93.19;98876.81;4999120;28;20249;-56
2022/09/01 07:50:56;;;;;;;17.70;12.87;;;;;;;16.57;92.21;98879.19;5005532;28;20232;-55
2022/09/01 07:53:25;;;;;;;22.30;13.13;;;;;;;16.64;91.44;98872.19;5015668;28;20236;-52
2022/09/01 07:55:55;;;;;;;18.60;14.00;;;;;;;16.59;91.71;98879.00;5001932;28;20876;-53
2022/09/01 07:58:24;;;;;;;17.10;12.77;;;;;;;16.80;91.01;98883.53;4999871;28;20320;-55
2022/09/01 08:00:58;;;;;;;17.73;12.93;;;;;;;16.87;90.47;98884.44;5019244;28;21132;-52
2022/09/01 08:03:26;;;;;;;15.30;12.20;;;;;;;16.96;90.15;98880.69;5001902;28;20238;-53
2022/09/01 08:05:56;;;;;;;14.87;11.53;;;;;;;17.10;88.63;98881.66;5005217;28;20372;-55
2022/09/01 08:08:25;;;;;;;17.33;11.73;;;;;;;17.18;87.34;98875.44;4997762;28;20238;-55
2022/09/01 08:10:53;;;;;;;15.47;12.77;;;;;;;17.15;88.88;98883.72;5002778;28;20328;-56
2022/09/01 08:13:20;;;;;;;16.77;12.23;;;;;;;17.25;86.87;98878.16;5001211;28;20245;-55
2022/09/01 08:15:46;;;;;;;12.93;11.57;;;;;;;17.27;86.97;98876.16;5000528;28;20230;-56
2022/09/01 08:18:15;;;;;;;15.67;11.07;;;;;;;17.32;85.66;98879.03;5021779;28;20233;-53
2022/09/01 08:20:45;;;;;;;14.03;11.53;;;;;;;17.47;84.23;98878.97;5000129;28;20242;-54
2022/09/01 08:23:36;;;;;;;14.03;11.27;;;;;;;17.54;84.94;98884.28;5017272;28;20348;-52
2022/09/01 08:26:06;;;;;;;15.30;11.50;;;;;;;17.66;84.63;98884.59;5001247;28;20236;-53
2022/09/01 08:28:34;;;;;;;12.60;10.33;;;;;;;17.77;82.92;98877.97;5000729;28;20227;-55
2022/09/01 08:31:06;;;;;;;14.40;9.80;;;;;;;17.81;82.73;98885.34;5001806;28;20543;-53
2022/09/01 08:33:34;;;;;;;10.70;8.83;;;;;;;17.90;80.23;98883.34;4997337;28;20234;-53
2022/09/01 08:36:02;;;;;;;12.27;8.63;;;;;;;18.05;79.95;98887.75;5004387;28;20234;-57
2022/09/01 08:52:22;;;;;;;11.37;9.07;;;;;;;18.76;78.96;98893.81;5794564;23;20230;-55
2022/09/01 08:54:53;;;;;;;12.37;8.67;;;;;;;18.85;77.97;98898.72;4935740;28;20241;-55
2022/09/01 08:57:23;;;;;;;32.33;8.90;;;;;;;18.99;77.56;98894.34;4939463;28;20313;-55
2022/09/01 09:00:12;;;;;;;8.23;7.10;;;;;;;19.19;73.76;98890.91;4938751;28;20240;-55
2022/09/01 09:02:50;;;;;;;7.53;6.47;;;;;;;19.27;72.48;98884.63;4927064;28;20228;-52
2022/09/01 09:05:32;;;;;;;9.00;6.67;;;;;;;19.49;70.48;98887.91;4925974;28;20981;-53
2022/09/01 09:08:17;;;;;;;7.43;5.83;;;;;;;19.43;72.33;98894.00;4921310;28;20243;-54
2022/09/01 09:10:55;;;;;;;5.57;4.43;;;;;;;19.59;70.84;98890.97;4923442;28;20236;-55
2022/09/01 09:13:31;;;;;;;3.97;3.57;;;;;;;19.51;66.40;98887.72;4924805;28;20262;-55
2022/09/01 09:16:01;;;;;;;3.73;3.33;;;;;;;19.67;66.19;98883.84;4926040;28;20261;-54
2022/09/01 09:18:36;;;;;;;4.50;3.30;;;;;;;19.77;63.99;98886.91;4922196;28;20224;-56
2022/09/01 09:21:08;;;;;;;4.87;3.27;;;;;;;19.87;64.07;98883.81;4927308;28;20277;-55
2022/09/01 09:23:41;;;;;;;5.27;3.40;;;;;;;19.93;66.02;98880.38;4920703;28;20233;-55
2022/09/01 09:26:08;;;;;;;4.57;3.50;;;;;;;19.97;65.98;98886.91;4924116;28;20621;-53
2022/09/01 09:28:36;;;;;;;3.30;2.87;;;;;;;20.08;63.58;98885.47;4921900;28;20226;-54
2022/09/01 09:31:26;;;;;;;7.10;3.53;;;;;;;20.33;63.12;98885.63;4922735;28;20246;-52
2022/09/01 09:33:53;;;;;;;4.03;3.63;;;;;;;20.28;62.37;98889.91;4920913;28;20243;-52
2022/09/01 09:36:23;;;;;;;3.73;3.10;;;;;;;20.24;62.48;98884.22;4924545;28;20264;-55
2022/09/01 09:39:04;;;;;;;5.93;3.70;;;;;;;20.32;62.11;98894.59;4921638;28;20235;-55
2022/09/01 09:41:31;;;;;;;4.37;3.97;;;;;;;20.38;61.64;98889.50;4923555;28;20277;-54
2022/09/01 09:44:00;;;;;;;4.13;3.73;;;;;;;20.20;61.93;98888.31;4925533;28;20235;-53
2022/09/01 09:46:34;;;;;;;3.60;3.30;;;;;;;20.24;61.96;98884.22;4921909;28;20227;-55
2022/09/01 09:49:15;;;;;;;4.60;4.20;;;;;;;20.32;61.81;98883.16;4924750;28;20789;-53
2022/09/01 09:51:47;;;;;;;5.47;4.00;;;;;;;20.37;60.73;98886.00;4923108;28;20238;-51
2022/09/01 09:54:20;;;;;;;4.23;3.50;;;;;;;20.24;61.30;98878.09;4925575;28;20325;-54
2022/09/01 09:56:47;;;;;;;4.40;4.00;;;;;;;20.24;61.39;98881.56;4924512;28;20242;-54
2022/09/01 09:59:33;;;;;;;4.33;3.70;;;;;;;20.42;60.58;98872.13;4924219;28;20258;-55
2022/09/01 10:02:16;;;;;;;4.40;4.00;;;;;;;20.47;61.64;98867.81;4920959;28;20813;-54
2022/09/01 10:04:43;;;;;;;5.97;4.47;;;;;;;20.56;60.20;98870.25;4922021;28;20333;-55
2022/09/01 10:07:27;;;;;;;5.43;3.57;;;;;;;20.63;60.83;98871.03;4924866;28;20558;-54
2022/09/01 10:09:57;;;;;;;5.43;4.47;;;;;;;20.56;60.43;98863.13;4923758;28;20283;-55
2022/09/01 10:12:25;;;;;;;4.93;4.03;;;;;;;20.61;59.94;98860.66;4918399;28;20927;-55
2022/09/01 10:14:55;;;;;;;5.17;3.70;;;;;;;20.65;59.49;98869.81;4923064;28;20235;-55
2022/09/01 10:17:28;;;;;;;3.70;3.40;;;;;;;20.63;59.22;98868.38;4918385;28;20221;-55
2022/09/01 10:19:57;;;;;;;4.20;3.80;;;;;;;20.63;58.94;98863.06;4922632;28;20239;-55
2022/09/01 10:22:25;;;;;;;5.57;4.30;;;;;;;20.59;58.38;98864.53;4922760;28;20231;-55
2022/09/01 10:24:52;;;;;;;4.40;4.00;;;;;;;20.62;58.76;98867.59;4925789;28;20275;-55
2022/09/01 10:27:24;;;;;;;3.90;3.53;;;;;;;20.71;58.54;98854.06;4921376;28;20642;-55
2022/09/01 10:29:56;;;;;;;4.80;3.83;;;;;;;20.89;56.67;98861.34;4921578;28;20262;-55
2022/09/01 10:32:29;;;;;;;3.93;3.30;;;;;;;21.00;57.69;98858.03;4921814;28;20319;-55
2022/09/01 10:34:57;;;;;;;6.43;3.80;;;;;;;21.13;56.85;98843.84;4924264;28;20238;-55
2022/09/01 10:37:24;;;;;;;4.90;3.37;;;;;;;21.25;56.32;98862.53;4914294;28;20729;-53
2022/09/01 10:40:13;;;;;;;3.70;3.40;;;;;;;21.17;55.12;98858.31;4917954;29;20715;-55
2022/09/01 10:42:43;;;;;;;5.07;3.67;;;;;;;21.27;56.07;98851.72;4933503;28;20742;-52
2022/09/01 10:45:21;;;;;;;4.30;3.63;;;;;;;21.45;56.06;98837.69;4923927;28;20243;-53
2022/09/01 10:47:49;;;;;;;3.90;3.50;;;;;;;21.56;55.18;98854.78;4921659;28;20237;-52
2022/09/01 10:50:31;;;;;;;3.87;3.47;;;;;;;21.64;53.74;98852.69;4923273;28;20310;-56
2022/09/01 10:53:04;;;;;;;3.60;3.30;;;;;;;21.99;52.33;98848.69;4922000;28;20238;-55
2022/09/01 10:55:42;;;;;;;3.63;3.33;;;;;;;21.97;53.92;98850.75;4918212;28;20244;-52
2022/09/01 10:58:30;;;;;;;4.33;3.40;;;;;;;22.32;52.40;98852.00;4924712;28;20290;-54
2022/09/01 11:01:16;;;;;;;4.00;3.60;;;;;;;22.37;53.18;98850.31;4916960;28;20254;-56
2022/09/01 11:04:01;;;;;;;3.80;3.50;;;;;;;22.15;51.69;98855.28;4920931;28;20501;-54
2022/09/01 11:06:34;;;;;;;3.57;3.27;;;;;;;22.35;51.42;98843.59;4922065;28;20224;-55
2022/09/01 11:09:06;;;;;;;4.07;3.67;;;;;;;22.03;51.39;98854.38;4923388;28;20315;-55
2022/09/01 11:11:40;;;;;;;4.53;3.27;;;;;;;22.26;54.30;98846.53;4922207;28;20233;-54
2022/09/01 11:14:18;;;;;;;3.30;3.00;;;;;;;22.14;51.56;98850.16;4923320;28;20249;-55
2022/09/01 11:17:12;;;;;;;5.93;3.30;;;;;;;22.08;51.12;98852.69;4919832;28;20240;-55
2022/09/01 11:19:42;;;;;;;3.57;3.27;;;;;;;22.11;51.33;98848.78;4923223;28;20311;-56
2022/09/01 11:22:26;;;;;;;5.77;3.63;;;;;;;22.19;50.69;98843.16;4923012;28;20752;-56
2022/09/01 11:25:12;;;;;;;4.80;3.23;;;;;;;22.17;52.00;98839.91;4923611;28;20243;-55
2022/09/01 11:28:01;;;;;;;3.40;3.10;;;;;;;22.39;51.25;98842.09;4923978;28;20592;-54
2022/09/01 11:30:50;;;;;;;4.10;3.10;;;;;;;22.27;50.08;98834.88;4922106;28;20247;-55
2022/09/01 11:33:32;;;;;;;4.00;2.63;;;;;;;22.32;49.77;98836.88;4925710;28;20714;-56
2022/09/01 11:36:00;;;;;;;3.57;3.10;;;;;;;22.39;48.94;98839.44;4924812;28;20231;-55
2022/09/01 11:38:32;;;;;;;4.03;3.30;;;;;;;22.58;49.58;98832.31;4925631;28;20299;-55
2022/09/01 11:40:58;;;;;;;4.77;2.97;;;;;;;22.71;48.24;98839.28;4927295;28;20275;-53
2022/09/01 11:43:30;;;;;;;4.57;2.50;;;;;;;22.83;47.75;98832.16;4912684;28;20319;-56
2022/09/01 11:46:10;;;;;;;4.37;3.23;;;;;;;23.09;47.55;98829.34;4940415;28;20260;-51
2022/09/01 11:48:37;;;;;;;3.53;2.80;;;;;;;23.17;48.54;98838.88;4924943;28;20286;-55
2022/09/01 11:51:04;;;;;;;3.30;2.80;;;;;;;23.50;47.59;98830.38;4928053;29;20237;-55
2022/09/01 11:53:31;;;;;;;3.43;2.90;;;;;;;23.80;45.43;98833.97;4924151;29;20240;-53
2022/09/01 11:56:15;;;;;;;2.83;2.60;;;;;;;23.48;46.54;98821.78;4929298;28;20287;-52
2022/09/01 11:58:42;;;;;;;3.03;2.47;;;;;;;23.04;47.32;98829.22;4924521;28;20254;-54
2022/09/01 12:01:17;;;;;;;3.03;2.73;;;;;;;23.04;46.75;98830.03;4925501;28;20287;-54